createdAt,value
2022-10-21T00:00:55.861Z,15.10
2022-10-21T00:03:24.530Z,15.10
2022-10-21T00:05:52.469Z,15.10
2022-10-21T00:08:21.383Z,15.10
2022-10-21T00:10:52.609Z,15.10
2022-10-21T00:13:20.844Z,15.10
2022-10-21T00:16:00.784Z,15.10
2022-10-21T00:18:29.084Z,15.20
2022-10-21T00:20:56.949Z,15.20
2022-10-21T00:23:24.779Z,15.20
2022-10-21T00:25:57.295Z,15.20
2022-10-21T00:28:25.379Z,15.20
2022-10-21T00:30:53.236Z,15.20
2022-10-21T00:33:22.554Z,15.20
2022-10-21T00:35:54.190Z,15.20
2022-10-21T00:40:55.130Z,15.20
2022-10-21T00:43:23.813Z,15.20
2022-10-21T00:45:54.894Z,15.20
2022-10-21T00:48:31.752Z,15.20
2022-10-21T00:51:03.928Z,15.10
2022-10-21T00:53:32.534Z,15.10
2022-10-21T00:56:04.952Z,15.10
2022-10-21T00:58:34.873Z,15.10
2022-10-21T01:01:05.885Z,15.10
2022-10-21T01:03:36.583Z,15.10
2022-10-21T01:06:07.944Z,15.00
2022-10-21T01:08:36.722Z,15.10
2022-10-21T01:11:06.226Z,15.00
2022-10-21T01:13:51.934Z,15.00
2022-10-21T01:16:25.939Z,15.00
2022-10-21T01:19:03.263Z,15.00
2022-10-21T01:21:37.202Z,15.10
2022-10-21T01:24:36.271Z,15.10
2022-10-21T01:27:28.818Z,15.00
2022-10-21T01:30:31.904Z,15.10
2022-10-21T01:33:33.802Z,15.10
2022-10-21T01:36:12.200Z,15.10
2022-10-21T01:38:44.282Z,15.10
2022-10-21T01:41:16.197Z,15.10
2022-10-21T01:43:51.207Z,15.10
2022-10-21T01:46:27.691Z,15.10
2022-10-21T01:49:01.471Z,15.10
2022-10-21T01:51:30.095Z,15.10
2022-10-21T01:54:03.609Z,15.10
2022-10-21T01:56:32.754Z,15.10
2022-10-21T01:59:02.359Z,15.10
2022-10-21T02:01:33.711Z,15.10
2022-10-21T02:04:05.551Z,15.00
2022-10-21T02:06:33.471Z,15.00
2022-10-21T02:09:01.514Z,15.10
2022-10-21T02:11:30.590Z,15.00
2022-10-21T02:14:02.724Z,15.00
2022-10-21T02:16:37.546Z,15.00
2022-10-21T02:19:06.952Z,15.10
2022-10-21T02:21:37.015Z,15.10
2022-10-21T02:24:12.237Z,15.10
2022-10-21T02:26:40.194Z,15.10
2022-10-21T02:29:08.360Z,15.10
2022-10-21T02:31:52.107Z,15.00
2022-10-21T02:34:30.171Z,15.00
2022-10-21T02:37:06.395Z,15.00
2022-10-21T02:39:39.661Z,15.00
2022-10-21T02:42:11.300Z,15.00
2022-10-21T02:44:39.166Z,15.00
2022-10-21T02:47:08.532Z,14.90
2022-10-21T02:49:36.498Z,14.90
2022-10-21T02:52:04.435Z,14.90
2022-10-21T02:54:32.299Z,14.90
2022-10-21T02:57:00.102Z,14.90
2022-10-21T02:59:27.974Z,14.90
2022-10-21T03:01:55.987Z,14.90
2022-10-21T03:04:25.171Z,14.90
2022-10-21T03:06:53.022Z,14.90
2022-10-21T03:09:21.086Z,14.90
2022-10-21T03:11:48.956Z,14.90
2022-10-21T03:14:16.988Z,15.00
2022-10-21T03:16:44.874Z,15.00
2022-10-21T03:19:12.827Z,15.00
2022-10-21T03:21:42.057Z,15.00
2022-10-21T03:24:15.375Z,15.00
2022-10-21T03:26:55.626Z,15.00
2022-10-21T03:29:23.521Z,15.00
2022-10-21T03:31:51.404Z,14.90
2022-10-21T03:34:19.243Z,14.90
2022-10-21T03:36:48.404Z,14.90
2022-10-21T03:39:16.278Z,15.00
2022-10-21T03:41:44.290Z,15.00
2022-10-21T03:44:12.470Z,15.00
2022-10-21T03:46:40.314Z,15.00
2022-10-21T03:49:15.494Z,15.00
2022-10-21T03:51:49.474Z,14.90
2022-10-21T03:54:17.937Z,14.90
2022-10-21T03:56:46.071Z,15.00
2022-10-21T03:59:14.100Z,14.90
2022-10-21T04:01:42.207Z,14.90
2022-10-21T04:04:10.163Z,14.90
2022-10-21T04:06:38.061Z,14.90
2022-10-21T04:09:07.314Z,14.90
2022-10-21T04:11:35.266Z,14.90
2022-10-21T04:14:03.294Z,14.90
2022-10-21T04:16:31.213Z,14.80
2022-10-21T04:18:59.045Z,14.80
2022-10-21T04:21:26.975Z,14.90
2022-10-21T04:23:54.810Z,14.80
2022-10-21T04:26:24.012Z,14.90
2022-10-21T04:28:51.917Z,14.90
2022-10-21T04:31:19.754Z,14.90
2022-10-21T04:33:47.740Z,14.90
2022-10-21T04:36:15.556Z,14.90
2022-10-21T04:38:43.365Z,14.90
2022-10-21T04:41:11.240Z,14.90
2022-10-21T04:43:40.415Z,14.90
2022-10-21T04:46:12.103Z,14.90
2022-10-21T04:48:40.109Z,14.90
2022-10-21T04:51:08.337Z,14.90
2022-10-21T04:53:36.278Z,14.90
2022-10-21T04:56:04.171Z,14.90
2022-10-21T04:58:32.220Z,14.90
2022-10-21T05:01:01.494Z,15.00
2022-10-21T05:03:29.459Z,15.00
2022-10-21T05:05:57.360Z,15.00
2022-10-21T05:08:25.216Z,15.00
2022-10-21T05:10:58.274Z,15.00
2022-10-21T05:13:26.116Z,15.00
2022-10-21T05:15:54.023Z,15.00
2022-10-21T05:18:23.236Z,15.00
2022-10-21T05:20:52.751Z,14.90
2022-10-21T05:23:20.853Z,14.90
2022-10-21T05:25:50.512Z,14.90
2022-10-21T05:28:19.090Z,14.90
2022-10-21T05:30:46.984Z,14.90
2022-10-21T05:33:15.028Z,14.90
2022-10-21T05:35:44.458Z,14.90
2022-10-21T05:38:12.327Z,14.90
2022-10-21T05:40:40.216Z,14.90
2022-10-21T05:43:08.031Z,15.00
2022-10-21T05:45:35.859Z,15.00
2022-10-21T05:48:03.788Z,15.00
2022-10-21T05:50:31.643Z,14.90
2022-10-21T05:53:00.870Z,14.90
2022-10-21T05:55:28.751Z,15.00
2022-10-21T05:57:59.238Z,15.00
2022-10-21T06:00:27.459Z,15.00
2022-10-21T06:02:57.788Z,15.00
2022-10-21T06:05:25.632Z,15.00
2022-10-21T06:07:53.514Z,15.00
2022-10-21T06:10:28.257Z,15.00
2022-10-21T06:12:57.128Z,15.00
2022-10-21T06:15:24.957Z,15.00
2022-10-21T06:17:52.868Z,15.00
2022-10-21T06:20:22.189Z,15.00
2022-10-21T06:22:50.045Z,15.00
2022-10-21T06:25:18.032Z,15.00
2022-10-21T06:27:47.249Z,15.00
2022-10-21T06:30:15.173Z,15.00
2022-10-21T06:32:43.056Z,15.10
2022-10-21T06:35:10.925Z,15.10
2022-10-21T06:37:38.912Z,15.10
2022-10-21T06:40:07.987Z,15.10
2022-10-21T06:42:35.837Z,15.10
2022-10-21T06:45:05.454Z,15.10
2022-10-21T06:47:33.344Z,15.20
2022-10-21T06:50:03.420Z,15.20
2022-10-21T06:52:31.917Z,15.20
2022-10-21T06:54:59.732Z,15.30
2022-10-21T06:57:28.662Z,15.30
2022-10-21T06:59:56.574Z,15.30
2022-10-21T07:02:25.874Z,15.40
2022-10-21T07:04:53.900Z,15.40
2022-10-21T07:07:21.823Z,15.40
2022-10-21T07:09:49.740Z,15.40
2022-10-21T07:12:17.818Z,15.40
2022-10-21T07:14:45.807Z,15.40
2022-10-21T07:17:13.801Z,15.40
2022-10-21T07:19:43.232Z,15.40
2022-10-21T07:22:11.124Z,15.40
2022-10-21T07:24:38.939Z,15.40
2022-10-21T07:27:06.872Z,15.50
2022-10-21T07:29:34.847Z,15.50
2022-10-21T07:32:02.732Z,15.50
2022-10-21T07:34:30.582Z,15.50
2022-10-21T07:36:59.823Z,15.50
2022-10-21T07:39:28.244Z,15.60
2022-10-21T07:41:58.373Z,15.60
2022-10-21T07:44:26.994Z,15.60
2022-10-21T07:46:55.349Z,15.60
2022-10-21T07:49:24.591Z,15.70
2022-10-21T07:51:53.757Z,15.70
2022-10-21T07:54:22.934Z,15.70
2022-10-21T07:56:52.515Z,15.80
2022-10-21T07:59:21.993Z,15.80
2022-10-21T08:04:24.763Z,15.80
2022-10-21T08:06:52.822Z,15.80
2022-10-21T08:09:22.056Z,15.80
2022-10-21T08:11:49.943Z,15.80
2022-10-21T08:14:17.773Z,15.90
2022-10-21T08:16:45.669Z,15.80
2022-10-21T08:19:19.747Z,15.80
2022-10-21T08:21:47.819Z,15.80
2022-10-21T08:24:15.669Z,15.70
2022-10-21T08:26:44.882Z,15.70
2022-10-21T08:29:12.751Z,15.70
2022-10-21T08:31:40.851Z,15.70
2022-10-21T08:34:08.753Z,15.70
2022-10-21T08:36:37.743Z,15.70
2022-10-21T08:39:05.925Z,15.70
2022-10-21T08:41:52.297Z,15.70
2022-10-21T08:44:29.302Z,15.70
2022-10-21T08:47:03.447Z,15.70
2022-10-21T08:49:38.213Z,15.70
2022-10-21T08:52:10.858Z,15.70
2022-10-21T08:54:45.676Z,15.60
2022-10-21T08:57:15.152Z,15.60
2022-10-21T08:59:43.134Z,15.60
2022-10-21T09:02:43.557Z,15.50
2022-10-21T09:05:33.683Z,15.60
2022-10-21T09:08:15.771Z,15.60
2022-10-21T09:10:54.469Z,15.50
2022-10-21T09:13:35.995Z,15.50
2022-10-21T09:16:12.860Z,15.50
2022-10-21T09:18:50.421Z,15.50
2022-10-21T09:21:26.665Z,15.40
2022-10-21T09:24:02.011Z,15.40
2022-10-21T09:26:41.320Z,15.40
2022-10-21T09:29:31.823Z,15.40
2022-10-21T09:32:12.841Z,15.40
2022-10-21T09:34:46.688Z,15.40
2022-10-21T09:37:20.835Z,15.40
2022-10-21T09:39:55.140Z,15.50
2022-10-21T09:42:45.902Z,15.50
2022-10-21T09:45:22.610Z,15.50
2022-10-21T09:47:55.792Z,15.50
2022-10-21T09:50:23.743Z,15.60
2022-10-21T09:53:00.416Z,15.60
2022-10-21T09:55:31.181Z,15.60
2022-10-21T09:58:01.184Z,15.70
2022-10-21T10:00:51.488Z,15.70
2022-10-21T10:03:34.083Z,15.70
2022-10-21T10:06:03.993Z,15.70
2022-10-21T10:08:36.278Z,15.70
2022-10-21T10:11:17.519Z,15.80
2022-10-21T10:13:47.729Z,15.80
2022-10-21T10:16:23.987Z,15.80
2022-10-21T10:18:53.977Z,15.90
2022-10-21T10:21:23.352Z,16.00
2022-10-21T10:23:53.790Z,16.00
2022-10-21T10:26:27.455Z,16.10
2022-10-21T10:28:59.290Z,16.20
2022-10-21T10:31:34.670Z,16.20
2022-10-21T10:34:05.060Z,16.30
2022-10-21T10:36:36.722Z,16.30
2022-10-21T10:39:07.933Z,16.30
2022-10-21T10:41:39.080Z,16.30
2022-10-21T10:44:28.241Z,16.20
2022-10-21T10:46:59.312Z,16.20
2022-10-21T10:49:28.547Z,16.20
2022-10-21T10:52:21.269Z,16.20
2022-10-21T10:54:50.288Z,16.20
2022-10-21T10:57:34.176Z,16.20
2022-10-21T11:00:18.627Z,16.20
2022-10-21T11:02:56.011Z,16.20
2022-10-21T11:05:29.839Z,16.20
2022-10-21T11:08:01.575Z,16.30
2022-10-21T11:10:36.199Z,16.30
2022-10-21T11:13:09.972Z,16.30
2022-10-21T11:16:01.050Z,16.30
2022-10-21T11:18:35.780Z,16.40
2022-10-21T11:21:12.043Z,16.40
2022-10-21T11:24:03.811Z,16.50
2022-10-21T11:26:41.443Z,16.50
2022-10-21T11:29:22.724Z,16.60
2022-10-21T11:32:11.293Z,16.60
2022-10-21T11:34:54.039Z,16.60
2022-10-21T11:37:31.067Z,16.60
2022-10-21T11:40:04.151Z,16.60
2022-10-21T11:42:38.517Z,16.70
2022-10-21T11:45:34.260Z,16.70
2022-10-21T11:48:18.275Z,16.80
2022-10-21T11:50:56.138Z,16.80
2022-10-21T11:53:36.367Z,16.90
2022-10-21T11:56:18.395Z,16.90
2022-10-21T11:58:58.079Z,16.90
2022-10-21T12:01:33.806Z,17.00
2022-10-21T12:04:29.823Z,17.00
2022-10-21T12:07:14.469Z,17.10
2022-10-21T12:09:49.098Z,17.30
2022-10-21T12:12:20.279Z,17.40
2022-10-21T12:14:51.816Z,17.60
2022-10-21T12:17:22.060Z,17.80
2022-10-21T12:19:57.825Z,18.30
2022-10-21T12:22:30.052Z,19.20
2022-10-21T12:25:08.584Z,20.30
2022-10-21T12:27:44.243Z,21.50
2022-10-21T12:30:17.469Z,22.60
2022-10-21T12:32:55.903Z,23.50
2022-10-21T12:35:29.056Z,23.60
2022-10-21T12:38:22.181Z,24.20
2022-10-21T12:40:51.277Z,25.20
2022-10-21T12:43:23.731Z,26.20
2022-10-21T12:46:07.184Z,27.80
2022-10-21T12:48:39.489Z,28.80
2022-10-21T12:51:17.516Z,29.10
2022-10-21T12:56:31.061Z,29.50
2022-10-21T12:59:02.901Z,30.20
2022-10-21T13:01:43.317Z,31.10
2022-10-21T13:04:45.192Z,30.90
2022-10-21T13:07:39.295Z,31.10
2022-10-21T13:10:29.486Z,29.20
2022-10-21T13:13:35.491Z,27.90
2022-10-21T13:16:44.918Z,26.10
2022-10-21T13:19:35.185Z,24.70
2022-10-21T13:22:11.164Z,23.70
2022-10-21T13:24:39.766Z,23.20
2022-10-21T13:27:28.872Z,22.80
2022-10-21T13:29:57.409Z,22.20
2022-10-21T13:32:28.928Z,21.70
2022-10-21T13:35:20.027Z,21.50
2022-10-21T13:37:56.265Z,21.10
2022-10-21T13:40:30.979Z,20.80
2022-10-21T13:43:02.963Z,20.70
2022-10-21T13:45:33.962Z,20.50
2022-10-21T13:48:04.662Z,20.30
2022-10-21T13:50:35.247Z,20.40
2022-10-21T13:53:06.521Z,20.40
2022-10-21T13:55:34.668Z,20.30
2022-10-21T13:58:03.885Z,20.20
2022-10-21T14:00:32.829Z,20.30
2022-10-21T14:03:04.182Z,20.80
2022-10-21T14:05:38.702Z,22.40
2022-10-21T14:08:18.350Z,24.00
2022-10-21T14:10:48.278Z,25.80
2022-10-21T14:13:28.666Z,27.40
2022-10-21T14:15:57.035Z,28.10
2022-10-21T14:18:35.016Z,28.20
2022-10-21T14:21:06.864Z,26.70
2022-10-21T14:23:35.568Z,25.80
2022-10-21T14:26:08.559Z,25.10
2022-10-21T14:28:38.602Z,24.40
2022-10-21T14:33:43.368Z,23.20
2022-10-21T14:36:15.293Z,22.80
2022-10-21T14:38:46.413Z,22.50
2022-10-21T14:41:19.606Z,22.20
2022-10-21T14:43:52.519Z,22.00
2022-10-21T14:46:21.527Z,21.70
2022-10-21T14:48:54.605Z,21.30
2022-10-21T14:51:23.920Z,21.00
2022-10-21T14:53:56.535Z,20.80
2022-10-21T14:56:30.863Z,20.60
2022-10-21T14:59:01.847Z,20.50
2022-10-21T15:01:29.777Z,20.50
2022-10-21T15:03:59.385Z,20.50
2022-10-21T15:06:29.100Z,20.50
2022-10-21T15:09:02.884Z,20.50
2022-10-21T15:11:40.430Z,20.70
2022-10-21T15:14:32.896Z,20.70
2022-10-21T15:17:04.135Z,20.70
2022-10-21T15:19:44.598Z,20.90
2022-10-21T15:22:28.109Z,21.10
2022-10-21T15:25:01.009Z,21.10
2022-10-21T15:27:35.147Z,21.10
2022-10-21T15:30:18.641Z,21.00
2022-10-21T15:32:46.650Z,20.90
2022-10-21T15:35:16.888Z,20.80
2022-10-21T15:37:47.976Z,20.70
2022-10-21T15:40:16.118Z,20.50
2022-10-21T15:42:45.323Z,20.40
2022-10-21T15:45:17.460Z,20.20
2022-10-21T15:47:47.135Z,20.10
2022-10-21T15:50:15.831Z,19.90
2022-10-21T15:52:43.943Z,19.80
2022-10-21T15:55:12.859Z,19.70
2022-10-21T15:57:41.941Z,19.60
2022-10-21T16:00:19.143Z,19.60
2022-10-21T16:02:48.078Z,19.60
2022-10-21T16:05:16.578Z,19.50
2022-10-21T16:07:45.373Z,19.50
2022-10-21T16:10:20.996Z,19.40
2022-10-21T16:12:49.636Z,19.40
2022-10-21T16:15:20.342Z,19.30
2022-10-21T16:17:50.106Z,19.30
2022-10-21T16:20:21.085Z,19.20
2022-10-21T16:22:49.015Z,19.10
2022-10-21T16:25:17.096Z,19.00
2022-10-21T16:27:55.605Z,18.90
2022-10-21T16:30:26.911Z,18.80
2022-10-21T16:32:54.982Z,18.80
2022-10-21T16:35:22.909Z,18.70
2022-10-21T16:37:51.222Z,18.60
2022-10-21T16:40:21.122Z,18.60
2022-10-21T16:42:49.460Z,18.60
2022-10-21T16:45:18.541Z,18.50
2022-10-21T16:47:52.820Z,18.40
2022-10-21T16:50:23.076Z,18.40
2022-10-21T16:52:51.231Z,18.30
2022-10-21T16:55:19.564Z,18.30
2022-10-21T16:57:47.432Z,18.20
2022-10-21T17:00:15.695Z,18.20
2022-10-21T17:02:46.341Z,18.20
2022-10-21T17:05:15.704Z,18.20
2022-10-21T17:07:44.366Z,18.10
2022-10-21T17:10:12.245Z,18.10
2022-10-21T17:12:40.272Z,18.10
2022-10-21T17:15:09.338Z,18.00
2022-10-21T17:17:37.756Z,18.00
2022-10-21T17:20:06.631Z,17.90
2022-10-21T17:22:35.840Z,17.90
2022-10-21T17:25:03.715Z,17.80
2022-10-21T17:27:31.727Z,17.80
2022-10-21T17:30:01.235Z,17.80
2022-10-21T17:32:29.141Z,17.70
2022-10-21T17:34:57.696Z,17.70
2022-10-21T17:37:25.518Z,17.70
2022-10-21T17:39:54.772Z,17.60
2022-10-21T17:42:22.610Z,17.60
2022-10-21T17:44:52.651Z,17.50
2022-10-21T17:47:20.545Z,17.50
2022-10-21T17:49:48.710Z,17.50
2022-10-21T17:52:16.552Z,17.50
2022-10-21T17:54:44.442Z,17.40
2022-10-21T17:57:13.787Z,17.30
2022-10-21T17:59:41.619Z,17.30
2022-10-21T18:02:10.561Z,17.30
2022-10-21T18:04:38.772Z,17.20
2022-10-21T18:07:09.405Z,17.20
2022-10-21T18:09:38.921Z,17.20
2022-10-21T18:12:09.370Z,17.20
2022-10-21T18:14:38.635Z,17.20
2022-10-21T18:17:06.587Z,17.20
2022-10-21T18:19:34.512Z,17.20
2022-10-21T18:22:02.462Z,17.10
2022-10-21T18:24:30.393Z,17.10
2022-10-21T18:26:58.285Z,17.10
2022-10-21T18:29:26.205Z,17.10
2022-10-21T18:31:56.424Z,17.00
2022-10-21T18:34:26.577Z,17.00
2022-10-21T18:36:56.695Z,17.00
2022-10-21T18:39:49.863Z,17.00
2022-10-21T18:42:17.835Z,17.00
2022-10-21T18:44:45.840Z,17.00
2022-10-21T18:47:15.089Z,16.90
2022-10-21T18:49:43.144Z,16.90
2022-10-21T18:52:13.143Z,16.90
2022-10-21T18:54:41.054Z,17.00
2022-10-21T18:57:12.673Z,16.90
2022-10-21T18:59:40.624Z,16.90
2022-10-21T19:02:11.622Z,16.90
2022-10-21T19:04:43.274Z,16.90
2022-10-21T19:07:11.155Z,16.90
2022-10-21T19:09:44.317Z,16.90
2022-10-21T19:12:16.355Z,16.90
2022-10-21T19:14:47.907Z,16.80
2022-10-21T19:17:15.808Z,16.80
2022-10-21T19:19:44.974Z,16.80
2022-10-21T19:22:14.459Z,16.80
2022-10-21T19:24:42.538Z,16.80
2022-10-21T19:27:10.427Z,16.80
2022-10-21T19:29:38.382Z,16.70
2022-10-21T19:32:06.702Z,16.80
2022-10-21T19:34:34.535Z,16.80
2022-10-21T19:37:03.716Z,16.80
2022-10-21T19:39:31.811Z,16.80
2022-10-21T19:41:59.856Z,16.80
2022-10-21T19:44:27.827Z,16.70
2022-10-21T19:46:55.674Z,16.70
2022-10-21T19:49:23.590Z,16.70
2022-10-21T19:51:54.207Z,16.70
2022-10-21T19:54:23.421Z,16.70
2022-10-21T19:56:54.286Z,16.70
2022-10-21T19:59:22.127Z,16.80
2022-10-21T20:01:50.048Z,16.70
2022-10-21T20:04:18.023Z,16.70
2022-10-21T20:06:46.093Z,16.60
2022-10-21T20:09:15.119Z,16.70
2022-10-21T20:11:44.583Z,16.70
2022-10-21T20:14:13.731Z,16.60
2022-10-21T20:16:44.117Z,16.60
2022-10-21T20:19:13.329Z,16.60
2022-10-21T20:21:41.437Z,16.50
2022-10-21T20:24:10.540Z,16.50
2022-10-21T20:29:08.603Z,16.50
2022-10-21T20:31:36.462Z,16.50
2022-10-21T20:34:04.520Z,16.50
2022-10-21T20:36:33.381Z,16.50
2022-10-21T20:39:02.922Z,16.50
2022-10-21T20:41:34.197Z,16.40
2022-10-21T20:44:03.266Z,16.40
2022-10-21T20:46:35.262Z,16.40
2022-10-21T20:49:04.873Z,16.40
2022-10-21T20:51:32.735Z,16.40
2022-10-21T20:54:02.584Z,16.40
2022-10-21T20:56:32.714Z,16.30
2022-10-21T20:59:01.171Z,16.30
2022-10-21T21:01:31.023Z,16.30
2022-10-21T21:04:01.639Z,16.30
2022-10-21T21:06:29.619Z,16.30
2022-10-21T21:09:22.485Z,16.30
2022-10-21T21:11:47.342Z,16.30
2022-10-21T21:14:15.376Z,16.30
2022-10-21T21:16:43.246Z,16.30
2022-10-21T21:19:19.371Z,16.30
2022-10-21T21:21:47.442Z,16.30
2022-10-21T21:24:15.352Z,16.30
2022-10-21T21:26:43.223Z,16.20
2022-10-21T21:29:11.439Z,16.20
2022-10-21T21:31:41.058Z,16.20
2022-10-21T21:34:11.147Z,16.20
2022-10-21T21:36:40.370Z,16.20
2022-10-21T21:39:09.228Z,16.20
2022-10-21T21:41:37.525Z,16.20
2022-10-21T21:44:06.950Z,16.20
2022-10-21T21:46:34.811Z,16.20
2022-10-21T21:49:05.802Z,16.30
2022-10-21T21:51:35.808Z,16.20
2022-10-21T21:54:07.499Z,16.20
2022-10-21T21:56:35.471Z,16.20
2022-10-21T21:59:03.294Z,16.30
2022-10-21T22:01:31.312Z,16.20
2022-10-21T22:03:59.738Z,16.20
2022-10-21T22:06:30.535Z,16.10
2022-10-21T22:08:59.274Z,16.10
2022-10-21T22:11:30.287Z,16.10
2022-10-21T22:13:59.172Z,16.10
2022-10-21T22:16:30.158Z,16.00
2022-10-21T22:19:00.208Z,16.10
2022-10-21T22:21:28.530Z,16.00
2022-10-21T22:23:56.405Z,16.00
2022-10-21T22:26:26.511Z,16.00
2022-10-21T22:28:55.897Z,16.00
2022-10-21T22:31:29.155Z,16.10
2022-10-21T22:33:59.344Z,16.20
2022-10-21T22:36:27.191Z,16.10
2022-10-21T22:38:55.049Z,16.20
2022-10-21T22:41:22.975Z,16.20
2022-10-21T22:43:50.918Z,16.10
2022-10-21T22:46:35.383Z,16.10
2022-10-21T22:49:04.347Z,16.00
2022-10-21T22:51:32.954Z,16.00
2022-10-21T22:54:01.331Z,16.00
2022-10-21T22:56:29.614Z,16.00
2022-10-21T22:58:58.133Z,16.00
2022-10-21T23:01:30.019Z,15.90
2022-10-21T23:04:02.399Z,15.90
2022-10-21T23:06:30.551Z,15.80
2022-10-21T23:08:58.532Z,15.80
2022-10-21T23:11:26.448Z,15.90
2022-10-21T23:14:02.839Z,15.80
2022-10-21T23:16:37.146Z,15.80
2022-10-21T23:19:05.584Z,15.90
2022-10-21T23:21:33.499Z,15.80
2022-10-21T23:24:01.380Z,15.90
2022-10-21T23:26:29.255Z,15.90
2022-10-21T23:28:57.105Z,15.90
2022-10-21T23:31:24.942Z,15.90
2022-10-21T23:33:54.163Z,15.80
2022-10-21T23:36:23.255Z,15.80
2022-10-21T23:38:55.104Z,15.80
2022-10-21T23:41:23.037Z,15.90
2022-10-21T23:43:50.896Z,16.00
2022-10-21T23:46:18.827Z,16.00
2022-10-21T23:48:46.767Z,16.00
2022-10-21T23:51:16.159Z,16.00
2022-10-21T23:53:43.944Z,16.00
2022-10-21T23:56:11.840Z,16.00
2022-10-21T23:58:39.673Z,16.00
